Terminal Aerodrome Forecast
Issued by NWS

Home | Current Version | Previous Version | Text Only | Print | Product List | Glossary On
Versions: 1 2 3 4 5 6 7 8 9 10 11 12 13 14
000
FTUS43 KGRR 271728
TAFLAN
TAF
KLAN 271728Z 2718/2818 16010KT P6SM VCTS BKN035CB
      TEMPO 2718/2720 4SM TSRA BR OVC025CB
     FM272200 16010KT P6SM VCTS BKN035CB
     FM280600 16011KT P6SM VCSH BKN025
     FM281500 18011G20KT 4SM SHRA BR VCTS OVC015CB=

USA.gov is the U.S. government's official web portal to all federal, state and local government web resources and services.